Time;durP1;ratioP1;P1;durP2;ratioP2;P2;SDS_P1;SDS_P2;PMS_P1;PMS_P2;Temp;Humidity;BMP_temperature;BMP_pressure;BME280_temperature;BME280_humidity;BME280_pressure;Samples;Min_cycle;Max_cycle;Signal;HPM_P1;HPM_P2
2020/12/17 00:02:08;;;;;;;9.43;7.55;;;3.80;99.90;;;;;;5011164;28;20218;-76
2020/12/17 00:04:34;;;;;;;7.72;6.97;;;3.80;99.90;;;;;;5011189;28;20577;-75
2020/12/17 00:07:02;;;;;;;8.10;7.22;;;3.80;99.90;;;;;;5011826;28;20206;-75
2020/12/17 00:09:28;;;;;;;9.98;8.48;;;3.70;99.90;;;;;;5010237;28;20213;-75
2020/12/17 00:11:56;;;;;;;8.73;7.85;;;3.70;99.90;;;;;;5010760;28;20485;-75
2020/12/17 00:14:22;;;;;;;8.40;7.43;;;3.70;99.90;;;;;;5010970;28;20207;-75
2020/12/17 00:16:48;;;;;;;9.73;8.73;;;3.80;99.90;;;;;;5011448;28;20577;-75
2020/12/17 00:19:14;;;;;;;9.90;7.90;;;3.80;99.90;;;;;;5011327;28;20565;-75
2020/12/17 00:21:40;;;;;;;8.70;7.80;;;3.80;99.90;;;;;;5010272;28;20494;-76
2020/12/17 00:24:07;;;;;;;8.00;7.20;;;3.80;99.90;;;;;;5010766;28;20330;-75
2020/12/17 00:26:34;;;;;;;9.65;7.00;;;3.80;99.90;;;;;;5010760;28;20214;-75
2020/12/17 00:29:00;;;;;;;9.38;7.95;;;3.80;99.90;;;;;;5011347;28;20198;-76
2020/12/17 00:31:27;;;;;;;9.27;7.25;;;3.90;99.90;;;;;;5010554;28;20626;-75
2020/12/17 00:33:53;;;;;;;9.57;7.95;;;3.90;99.90;;;;;;5010109;28;20246;-75
2020/12/17 00:36:20;;;;;;;9.18;8.00;;;3.90;99.90;;;;;;5010793;28;20202;-75
2020/12/17 00:38:47;;;;;;;9.15;7.82;;;3.90;99.90;;;;;;5011210;28;20202;-77
2020/12/17 00:41:14;;;;;;;8.65;7.80;;;3.90;99.90;;;;;;5011146;28;20214;-76
2020/12/17 00:43:41;;;;;;;8.75;7.75;;;3.90;99.90;;;;;;5009128;28;20253;-76
2020/12/17 00:46:07;;;;;;;8.40;7.50;;;3.90;99.90;;;;;;5010303;28;20268;-76
2020/12/17 00:48:34;;;;;;;10.00;8.27;;;3.90;99.90;;;;;;5010725;28;20670;-76
2020/12/17 00:51:01;;;;;;;8.88;7.97;;;3.80;99.90;;;;;;5010760;28;20720;-76
2020/12/17 00:53:27;;;;;;;8.88;7.97;;;3.80;99.90;;;;;;5009764;28;20218;-76
2020/12/17 00:55:53;;;;;;;7.65;6.75;;;3.70;99.90;;;;;;5010816;28;20211;-76
2020/12/17 00:58:20;;;;;;;7.50;6.80;;;3.70;99.90;;;;;;5010397;28;20268;-76
2020/12/17 01:00:46;;;;;;;7.80;7.00;;;3.70;99.90;;;;;;5011160;28;20198;-76
2020/12/17 01:03:13;;;;;;;8.13;7.05;;;3.70;99.90;;;;;;5010097;28;20257;-77
2020/12/17 01:05:39;;;;;;;7.40;6.70;;;3.60;99.90;;;;;;5010015;28;20214;-76
2020/12/17 01:08:05;;;;;;;8.90;8.00;;;3.60;99.90;;;;;;5010445;28;20203;-75
2020/12/17 01:10:32;;;;;;;9.43;7.18;;;3.60;99.90;;;;;;5010105;28;20600;-76
2020/12/17 01:12:58;;;;;;;8.57;7.60;;;3.60;99.90;;;;;;5009574;28;20222;-77
2020/12/17 01:15:25;;;;;;;7.72;7.00;;;3.50;99.90;;;;;;5010508;28;20210;-76
2020/12/17 01:17:51;;;;;;;8.05;7.35;;;3.50;99.90;;;;;;5010568;28;20265;-76
2020/12/17 01:20:18;;;;;;;8.20;7.35;;;3.50;99.90;;;;;;5010508;28;20210;-77
2020/12/17 01:22:44;;;;;;;7.75;7.05;;;3.50;99.90;;;;;;5009594;28;20234;-76
2020/12/17 01:25:10;;;;;;;9.27;7.40;;;3.50;99.90;;;;;;5009372;28;20229;-76
2020/12/17 01:27:36;;;;;;;8.40;6.88;;;3.50;99.90;;;;;;5009813;28;20217;-76
2020/12/17 01:30:03;;;;;;;7.72;7.00;;;3.40;99.90;;;;;;5010219;28;20206;-75
2020/12/17 01:32:31;;;;;;;8.30;7.20;;;3.40;99.90;;;;;;5009874;28;20218;-76
2020/12/17 01:34:57;;;;;;;9.88;7.47;;;3.40;99.90;;;;;;5009273;28;20210;-77
2020/12/17 01:37:23;;;;;;;7.90;7.15;;;3.40;99.90;;;;;;5008941;28;20640;-76
2020/12/17 01:39:49;;;;;;;7.72;6.93;;;3.30;99.90;;;;;;5010240;28;20206;-76
2020/12/17 01:42:16;;;;;;;7.82;6.85;;;3.30;99.90;;;;;;5009414;28;20281;-76
2020/12/17 01:44:43;;;;;;;7.40;6.70;;;3.30;99.90;;;;;;5009771;28;20433;-77
2020/12/17 01:47:10;;;;;;;8.77;7.88;;;3.30;99.90;;;;;;5009890;28;20210;-76
2020/12/17 01:49:37;;;;;;;8.63;7.72;;;3.20;99.90;;;;;;5008649;28;20210;-77
2020/12/17 01:52:03;;;;;;;7.65;6.95;;;3.20;99.90;;;;;;5009410;28;20202;-76
2020/12/17 01:54:29;;;;;;;8.88;7.85;;;3.20;99.90;;;;;;5009553;28;20213;-77
2020/12/17 01:57:00;;;;;;;9.43;7.53;;;3.20;99.90;;;;;;5009853;28;20625;-76
2020/12/17 01:59:28;;;;;;;8.35;7.55;;;3.10;99.90;;;;;;5009152;28;20617;-76
2020/12/17 02:01:55;;;;;;;11.00;7.80;;;3.10;99.90;;;;;;5008482;28;20301;-76
2020/12/17 02:04:23;;;;;;;8.55;7.65;;;3.10;99.90;;;;;;5009333;28;20213;-76
2020/12/17 02:06:51;;;;;;;9.55;6.50;;;3.00;99.90;;;;;;5009706;28;20206;-76
2020/12/17 02:09:19;;;;;;;8.88;7.50;;;2.90;99.90;;;;;;5009377;28;20199;-76
2020/12/17 02:11:51;;;;;;;7.70;6.78;;;2.90;99.90;;;;;;5009160;28;20206;-76
2020/12/17 02:14:18;;;;;;;7.30;6.60;;;2.90;99.90;;;;;;5008151;28;20219;-76
2020/12/17 02:16:45;;;;;;;9.57;7.00;;;2.80;99.90;;;;;;5009372;28;20236;-76
2020/12/17 02:19:11;;;;;;;9.50;8.32;;;2.80;99.90;;;;;;5009398;28;20214;-76
2020/12/17 02:21:37;;;;;;;9.13;7.95;;;2.80;99.90;;;;;;5008026;28;20210;-76
2020/12/17 02:24:04;;;;;;;11.82;8.30;;;2.80;99.90;;;;;;5008895;28;20701;-76
2020/12/17 02:26:32;;;;;;;10.30;7.25;;;2.80;99.90;;;;;;5007552;28;20202;-76
2020/12/17 02:28:58;;;;;;;8.90;7.25;;;2.80;99.90;;;;;;5008977;28;20202;-76
2020/12/17 02:31:25;;;;;;;8.88;8.02;;;2.80;99.90;;;;;;5008576;28;20593;-76
2020/12/17 02:33:51;;;;;;;8.43;7.53;;;2.80;99.90;;;;;;5008209;28;20222;-76
2020/12/17 02:36:18;;;;;;;9.27;6.85;;;2.80;99.90;;;;;;5008572;28;20206;-76
2020/12/17 02:38:44;;;;;;;8.30;7.50;;;2.70;99.90;;;;;;5008312;28;20202;-76
2020/12/17 02:41:11;;;;;;;10.00;8.15;;;2.60;99.90;;;;;;5009010;28;20586;-76
2020/12/17 02:43:38;;;;;;;7.80;7.00;;;2.50;99.90;;;;;;5008316;28;20226;-76
2020/12/17 02:46:04;;;;;;;9.20;6.85;;;2.50;99.90;;;;;;5008799;28;20698;-76
2020/12/17 02:48:31;;;;;;;7.50;6.80;;;2.50;99.90;;;;;;5009439;28;20339;-76
2020/12/17 02:50:57;;;;;;;8.32;7.38;;;2.50;99.90;;;;;;5008761;28;20207;-76
2020/12/17 02:53:23;;;;;;;12.07;7.63;;;2.40;99.90;;;;;;5008011;28;20210;-76
2020/12/17 02:55:49;;;;;;;9.27;7.18;;;2.40;99.90;;;;;;5008863;28;20213;-76
2020/12/17 02:58:16;;;;;;;7.93;7.13;;;2.40;99.90;;;;;;5008794;28;20210;-76
2020/12/17 03:00:43;;;;;;;8.23;7.05;;;2.40;99.90;;;;;;5008889;28;20210;-76
2020/12/17 03:03:09;;;;;;;8.25;7.45;;;2.30;99.90;;;;;;5008291;28;20222;-77
2020/12/17 03:05:35;;;;;;;8.05;7.25;;;2.30;99.90;;;;;;5008573;28;20733;-76
2020/12/17 03:08:02;;;;;;;8.40;7.53;;;2.30;99.90;;;;;;5008689;28;20202;-76
2020/12/17 03:10:28;;;;;;;7.82;6.68;;;2.30;99.90;;;;;;5008017;28;20202;-76
2020/12/17 03:12:54;;;;;;;7.97;7.18;;;2.30;99.90;;;;;;5008132;28;20222;-76
2020/12/17 03:15:20;;;;;;;7.40;6.70;;;2.40;99.90;;;;;;5007307;28;20206;-76
2020/12/17 03:17:47;;;;;;;7.47;6.60;;;2.40;99.90;;;;;;5008490;28;20467;-76
2020/12/17 03:20:14;;;;;;;8.55;6.60;;;2.40;99.90;;;;;;5008414;28;20584;-76
2020/12/17 03:22:40;;;;;;;8.68;7.70;;;2.40;99.90;;;;;;5007846;28;20241;-76
2020/12/17 03:25:08;;;;;;;9.13;7.53;;;2.40;99.90;;;;;;4989060;28;20632;-75
2020/12/17 03:27:35;;;;;;;8.45;6.97;;;2.40;99.90;;;;;;4996574;28;20206;-76
2020/12/17 03:30:03;;;;;;;10.73;8.05;;;2.40;99.90;;;;;;5008808;28;20234;-75
2020/12/17 03:32:29;;;;;;;8.38;6.72;;;2.40;99.90;;;;;;5007710;28;20218;-76
2020/12/17 03:34:56;;;;;;;8.50;6.68;;;2.30;99.90;;;;;;5008205;28;20213;-76
2020/12/17 03:37:22;;;;;;;7.82;6.75;;;2.30;99.90;;;;;;5007909;28;20459;-76
2020/12/17 03:39:48;;;;;;;8.02;7.07;;;2.20;99.90;;;;;;5007660;28;20211;-76
2020/12/17 03:42:14;;;;;;;7.65;6.85;;;2.20;99.90;;;;;;5008236;28;20257;-76
2020/12/17 03:44:41;;;;;;;8.80;7.10;;;2.10;99.90;;;;;;5008169;28;20686;-76
2020/12/17 03:47:07;;;;;;;13.73;6.95;;;2.10;99.90;;;;;;5008342;28;20210;-76
2020/12/17 03:49:33;;;;;;;8.93;6.75;;;2.00;99.90;;;;;;5007758;28;20206;-76
2020/12/17 03:52:00;;;;;;;8.73;7.10;;;2.00;99.90;;;;;;5006605;28;20198;-76
2020/12/17 03:54:27;;;;;;;7.30;6.63;;;2.00;99.90;;;;;;5008099;28;20206;-76
2020/12/17 03:56:53;;;;;;;9.70;6.80;;;2.10;99.90;;;;;;5008298;28;20206;-76
2020/12/17 03:59:19;;;;;;;8.05;7.25;;;2.10;99.90;;;;;;5011078;28;20225;-76
2020/12/17 04:01:45;;;;;;;7.90;7.20;;;2.00;99.90;;;;;;5010939;28;20752;-76
2020/12/17 04:04:11;;;;;;;9.20;7.13;;;2.00;99.90;;;;;;5010769;28;20277;-76
2020/12/17 04:06:37;;;;;;;8.93;6.82;;;2.00;99.90;;;;;;5011179;28;20261;-76
2020/12/17 04:09:05;;;;;;;8.55;6.63;;;2.00;99.90;;;;;;5011718;28;20198;-76
2020/12/17 04:11:31;;;;;;;7.38;6.65;;;1.90;99.90;;;;;;5010907;28;20218;-76
2020/12/17 04:13:57;;;;;;;8.00;6.65;;;1.90;99.90;;;;;;5011380;28;20219;-76
2020/12/17 04:16:23;;;;;;;8.63;7.20;;;1.90;99.90;;;;;;5010605;28;20581;-76
2020/12/17 04:18:50;;;;;;;7.72;6.95;;;1.90;99.90;;;;;;5011423;28;20202;-76
2020/12/17 04:21:16;;;;;;;9.95;7.45;;;1.90;99.90;;;;;;5011372;28;20260;-76
2020/12/17 04:23:42;;;;;;;10.45;8.10;;;1.90;99.90;;;;;;5010452;28;20721;-76
2020/12/17 04:26:12;;;;;;;11.02;9.30;;;2.00;99.90;;;;;;5011230;28;20203;-76
2020/12/17 04:28:39;;;;;;;12.40;9.30;;;2.20;99.90;;;;;;5010692;28;20202;-77
2020/12/17 04:31:05;;;;;;;13.98;9.95;;;2.40;99.90;;;;;;5015051;28;20677;-77
2020/12/17 04:33:31;;;;;;;14.30;10.55;;;2.50;99.90;;;;;;5015179;28;20223;-78
2020/12/17 04:35:58;;;;;;;11.68;9.77;;;2.60;99.90;;;;;;5013304;28;20229;-77
2020/12/17 04:38:24;;;;;;;10.52;8.50;;;2.70;99.90;;;;;;5012597;28;20202;-77
2020/12/17 04:40:50;;;;;;;9.15;7.18;;;2.70;99.90;;;;;;5011340;28;20272;-76
2020/12/17 04:43:17;;;;;;;8.75;7.22;;;2.70;99.90;;;;;;5012640;28;20234;-77
2020/12/17 04:45:43;;;;;;;8.95;8.05;;;2.60;99.90;;;;;;5013427;28;20206;-76
2020/12/17 04:48:16;;;;;;;9.27;7.63;;;2.50;99.90;;;;;;5010846;28;20206;-76
2020/12/17 04:50:43;;;;;;;14.48;7.47;;;2.40;99.90;;;;;;5010569;28;20210;-78
2020/12/17 04:53:13;;;;;;;10.52;8.25;;;2.40;99.90;;;;;;5010917;28;20225;-78
2020/12/17 04:55:41;;;;;;;8.75;7.53;;;2.30;99.90;;;;;;5011327;28;20650;-77
2020/12/17 04:58:10;;;;;;;7.60;6.90;;;2.20;99.90;;;;;;5011944;28;20206;-77
2020/12/17 05:00:40;;;;;;;8.45;7.38;;;2.20;99.90;;;;;;5009331;28;20206;-76
2020/12/17 05:03:12;;;;;;;8.85;7.00;;;2.10;99.90;;;;;;5008259;28;20227;-77
2020/12/17 05:05:38;;;;;;;8.50;7.70;;;2.20;99.90;;;;;;5007680;28;20238;-75
2020/12/17 05:08:05;;;;;;;8.98;6.90;;;2.10;99.90;;;;;;5009770;28;20679;-76
2020/12/17 05:10:31;;;;;;;8.02;6.93;;;2.10;99.90;;;;;;5009771;28;20210;-76
2020/12/17 05:12:58;;;;;;;7.97;7.00;;;2.00;99.90;;;;;;5009446;28;20277;-75
2020/12/17 05:15:25;;;;;;;10.63;8.13;;;2.00;99.90;;;;;;5009526;28;20198;-76
2020/12/17 05:17:52;;;;;;;11.77;9.20;;;2.00;99.90;;;;;;5007850;28;20202;-76
2020/12/17 05:20:18;;;;;;;14.35;10.15;;;2.10;99.90;;;;;;5008924;28;20207;-76
2020/12/17 05:22:45;;;;;;;14.20;11.15;;;2.20;99.90;;;;;;5008028;28;20256;-76
2020/12/17 05:25:12;;;;;;;15.30;10.93;;;2.30;99.90;;;;;;5009130;28;20194;-77
2020/12/17 05:27:41;;;;;;;15.13;10.93;;;2.50;99.90;;;;;;5009695;28;20275;-76
2020/12/17 05:30:07;;;;;;;17.08;12.45;;;2.90;99.90;;;;;;5009212;28;20740;-75
2020/12/17 05:32:33;;;;;;;18.48;11.77;;;3.10;99.90;;;;;;5008400;28;20222;-77
2020/12/17 05:35:03;;;;;;;16.17;11.88;;;3.30;99.90;;;;;;5009692;28;20681;-76
2020/12/17 05:37:31;;;;;;;15.82;11.80;;;3.50;99.90;;;;;;5009524;28;20206;-76
2020/12/17 05:39:59;;;;;;;16.70;11.13;;;3.60;99.90;;;;;;5079383;23;20226;-77
2020/12/17 05:42:26;;;;;;;15.00;11.05;;;3.70;99.90;;;;;;5003730;28;20235;-78
2020/12/17 05:44:53;;;;;;;16.08;10.98;;;3.70;99.90;;;;;;4989904;28;20203;-77
2020/12/17 05:47:19;;;;;;;15.27;10.45;;;3.80;99.90;;;;;;4989492;28;20206;-77
2020/12/17 05:49:45;;;;;;;14.18;10.80;;;3.90;99.90;;;;;;4990000;28;20698;-77
2020/12/17 05:52:15;;;;;;;12.60;9.73;;;3.90;99.90;;;;;;4988778;28;20625;-77
2020/12/17 05:54:43;;;;;;;12.30;10.35;;;3.90;99.90;;;;;;4989461;28;20210;-76
2020/12/17 05:57:12;;;;;;;12.00;9.45;;;3.80;99.90;;;;;;4987609;28;20205;-77
2020/12/17 05:59:38;;;;;;;12.85;10.25;;;3.90;99.90;;;;;;4989825;28;20218;-77
2020/12/17 06:02:24;;;;;;;14.63;10.43;;;3.80;99.90;;;;;;4988670;28;20213;-78
2020/12/17 06:05:02;;;;;;;14.48;10.70;;;3.80;99.90;;;;;;4989097;28;20203;-77
2020/12/17 06:07:33;;;;;;;12.25;9.82;;;3.90;99.90;;;;;;4988423;28;20309;-78
2020/12/17 06:10:06;;;;;;;9.90;8.27;;;3.90;99.90;;;;;;4989486;28;20675;-78
2020/12/17 06:12:34;;;;;;;11.48;8.43;;;3.90;99.90;;;;;;4989152;28;20694;-78
2020/12/17 06:15:03;;;;;;;11.45;9.77;;;3.90;99.90;;;;;;4989327;28;20207;-78
2020/12/17 06:17:36;;;;;;;13.50;9.25;;;3.90;99.90;;;;;;4989227;28;20394;-78
2020/12/17 06:20:04;;;;;;;11.05;8.63;;;3.90;99.90;;;;;;4989788;28;20207;-77
2020/12/17 06:22:32;;;;;;;12.27;8.90;;;3.90;99.90;;;;;;4990584;28;20226;-77
2020/12/17 06:24:58;;;;;;;9.13;7.20;;;3.90;99.90;;;;;;4991033;28;20295;-77
2020/12/17 06:27:30;;;;;;;10.00;7.32;;;3.90;99.90;;;;;;4989481;28;20203;-78
2020/12/17 06:30:06;;;;;;;8.68;6.50;;;3.90;99.90;;;;;;4989551;28;20552;-77
2020/12/17 06:32:34;;;;;;;8.60;6.20;;;4.00;99.90;;;;;;4989927;28;20277;-76
2020/12/17 06:35:03;;;;;;;6.72;6.03;;;4.10;99.90;;;;;;4991205;28;20203;-78
2020/12/17 06:37:32;;;;;;;8.35;6.35;;;4.10;99.90;;;;;;4991023;28;20206;-76
2020/12/17 06:39:58;;;;;;;7.28;5.97;;;4.10;99.90;;;;;;4991535;28;20222;-77
2020/12/17 06:42:34;;;;;;;7.13;6.20;;;4.10;99.90;;;;;;4992336;28;20226;-77
2020/12/17 06:45:01;;;;;;;8.80;6.20;;;4.10;99.90;;;;;;4993140;28;20215;-76
2020/12/17 06:47:28;;;;;;;6.05;5.45;;;4.10;99.90;;;;;;4990617;28;20619;-77
2020/12/17 06:49:55;;;;;;;6.60;5.70;;;4.10;99.90;;;;;;4990655;28;20294;-76
2020/12/17 06:52:21;;;;;;;7.20;4.90;;;4.10;99.90;;;;;;4989890;28;20227;-77
2020/12/17 06:54:48;;;;;;;5.72;4.82;;;4.10;99.90;;;;;;4989865;28;20203;-77
2020/12/17 06:57:16;;;;;;;6.40;5.18;;;4.10;99.90;;;;;;4989874;28;20312;-77
2020/12/17 06:59:43;;;;;;;5.32;4.63;;;4.10;99.90;;;;;;4990793;28;20207;-77
2020/12/17 07:02:10;;;;;;;5.95;5.10;;;4.10;99.90;;;;;;4989703;28;20211;-77
2020/12/17 07:04:40;;;;;;;5.32;4.82;;;4.10;99.90;;;;;;4991296;28;20199;-77
2020/12/17 07:07:15;;;;;;;4.53;4.10;;;4.10;99.90;;;;;;4991703;28;20203;-76
2020/12/17 07:09:41;;;;;;;5.93;4.22;;;4.10;99.90;;;;;;4992228;28;20202;-76
2020/12/17 07:12:10;;;;;;;5.32;4.50;;;4.10;99.90;;;;;;5007641;28;20197;-77
2020/12/17 07:14:36;;;;;;;3.92;3.53;;;4.10;99.90;;;;;;5011076;28;20207;-76
2020/12/17 07:17:05;;;;;;;4.63;3.60;;;4.10;99.90;;;;;;5011138;28;20199;-76
2020/12/17 07:19:39;;;;;;;5.68;4.00;;;4.20;99.90;;;;;;4995396;28;20218;-76
2020/12/17 07:22:06;;;;;;;4.40;3.83;;;4.30;99.90;;;;;;4989358;28;20207;-77
2020/12/17 07:24:35;;;;;;;4.50;3.97;;;4.30;99.90;;;;;;4989640;28;20237;-76
2020/12/17 07:27:05;;;;;;;5.57;3.72;;;4.30;99.90;;;;;;4989608;28;20204;-76
2020/12/17 07:29:37;;;;;;;3.40;3.10;;;4.30;99.90;;;;;;4989613;28;20218;-77
2020/12/17 07:32:31;;;;;;;3.88;3.53;;;4.30;99.90;;;;;;4988613;28;20199;-76
2020/12/17 07:35:00;;;;;;;6.00;3.88;;;4.30;99.90;;;;;;5005583;28;20198;-77
2020/12/17 07:37:40;;;;;;;5.22;3.80;;;4.30;99.90;;;;;;5007711;28;20207;-77
2020/12/17 07:40:34;;;;;;;5.22;3.78;;;4.30;99.90;;;;;;4993550;28;20207;-77
2020/12/17 07:43:05;;;;;;;6.53;3.88;;;4.40;99.90;;;;;;4992686;28;20709;-77
2020/12/17 07:45:43;;;;;;;3.65;3.35;;;4.40;99.90;;;;;;4993478;28;20683;-77
2020/12/17 07:48:35;;;;;;;3.60;3.30;;;4.40;99.90;;;;;;5010382;28;20213;-76
2020/12/17 07:51:04;;;;;;;5.25;3.30;;;4.40;99.90;;;;;;5012693;28;20199;-77
2020/12/17 07:53:30;;;;;;;4.45;4.05;;;4.50;99.90;;;;;;5012158;28;20222;-76
2020/12/17 07:55:56;;;;;;;4.10;3.70;;;4.60;99.90;;;;;;5012718;28;20213;-77
2020/12/17 07:58:23;;;;;;;4.18;3.78;;;4.60;99.90;;;;;;5011799;28;20206;-77
2020/12/17 08:00:52;;;;;;;3.80;3.40;;;4.80;99.90;;;;;;4993178;28;20591;-76
2020/12/17 08:03:18;;;;;;;3.97;3.08;;;5.20;99.90;;;;;;4993377;28;20223;-76
2020/12/17 08:05:45;;;;;;;3.90;3.50;;;5.70;99.90;;;;;;5013170;28;20202;-76
2020/12/17 08:08:14;;;;;;;3.97;3.58;;;5.70;99.90;;;;;;5012671;28;20246;-76
2020/12/17 08:10:40;;;;;;;4.05;3.65;;;5.60;99.90;;;;;;5013290;28;20202;-76
2020/12/17 08:13:07;;;;;;;4.22;3.50;;;5.40;99.90;;;;;;5012840;28;20223;-77
2020/12/17 08:15:33;;;;;;;4.13;3.72;;;5.20;99.90;;;;;;5013056;28;20198;-76
2020/12/17 08:18:01;;;;;;;5.15;4.20;;;5.10;99.90;;;;;;5013490;28;20206;-77
2020/12/17 08:20:28;;;;;;;5.55;3.50;;;5.00;99.90;;;;;;5013819;28;20203;-76
2020/12/17 08:22:54;;;;;;;3.55;3.25;;;5.00;99.90;;;;;;5012704;28;20569;-76
2020/12/17 08:25:21;;;;;;;3.85;3.45;;;5.00;99.90;;;;;;5014449;28;20574;-76
2020/12/17 08:27:51;;;;;;;6.65;3.70;;;5.00;99.90;;;;;;5016264;28;20199;-76
2020/12/17 08:30:19;;;;;;;4.05;3.70;;;5.00;99.90;;;;;;5015524;28;20230;-76
2020/12/17 08:32:48;;;;;;;5.78;3.75;;;5.00;99.90;;;;;;5013971;28;20214;-76
2020/12/17 08:35:23;;;;;;;3.83;3.40;;;5.10;99.90;;;;;;5013563;28;20230;-77
2020/12/17 08:37:53;;;;;;;4.20;3.53;;;5.10;99.90;;;;;;4995053;28;20215;-76
2020/12/17 08:40:24;;;;;;;4.18;3.78;;;5.10;99.90;;;;;;4993898;28;20219;-77
2020/12/17 08:42:56;;;;;;;4.32;3.92;;;5.20;99.90;;;;;;4993245;28;20682;-76
2020/12/17 08:45:25;;;;;;;4.97;3.70;;;5.20;99.90;;;;;;4992996;28;20262;-76
2020/12/17 08:47:58;;;;;;;4.07;3.67;;;5.30;99.90;;;;;;4993788;28;20211;-77
2020/12/17 08:50:26;;;;;;;3.80;3.22;;;5.40;99.90;;;;;;4993587;28;20233;-77
2020/12/17 08:52:53;;;;;;;4.18;3.70;;;5.40;99.90;;;;;;4993414;28;20293;-76
2020/12/17 08:55:19;;;;;;;4.95;3.58;;;5.50;99.90;;;;;;4993128;28;20591;-77
2020/12/17 08:57:47;;;;;;;5.15;3.78;;;5.50;99.90;;;;;;4993924;28;20214;-77
2020/12/17 09:00:16;;;;;;;4.68;3.97;;;5.50;99.90;;;;;;4992637;28;20207;-76
2020/12/17 09:02:42;;;;;;;5.30;3.55;;;5.60;99.90;;;;;;4993694;28;20231;-76
2020/12/17 09:05:12;;;;;;;3.80;3.40;;;5.70;99.90;;;;;;4993366;28;20199;-76
2020/12/17 09:07:46;;;;;;;4.80;3.80;;;5.80;99.90;;;;;;4994079;28;20679;-76
2020/12/17 09:10:13;;;;;;;6.55;3.47;;;6.00;99.90;;;;;;4991561;28;20211;-76
2020/12/17 09:12:39;;;;;;;5.63;3.35;;;6.00;99.90;;;;;;4991804;28;20629;-76
2020/12/17 09:15:06;;;;;;;4.18;3.78;;;6.00;99.90;;;;;;4991418;28;20199;-76
2020/12/17 09:17:33;;;;;;;3.85;3.45;;;6.10;99.90;;;;;;4992737;28;20203;-77
2020/12/17 09:20:00;;;;;;;6.45;3.95;;;6.00;99.90;;;;;;4992515;28;20207;-76
2020/12/17 09:22:32;;;;;;;3.53;3.15;;;6.00;99.90;;;;;;4992312;28;20236;-76
2020/12/17 09:24:59;;;;;;;4.75;3.60;;;6.10;99.90;;;;;;4992180;28;20584;-77
2020/12/17 09:27:27;;;;;;;3.83;3.47;;;6.30;99.90;;;;;;4992852;28;20277;-77
2020/12/17 09:30:06;;;;;;;3.85;3.28;;;6.50;99.90;;;;;;4993914;28;20207;-77
2020/12/17 09:32:32;;;;;;;5.13;3.58;;;6.70;99.90;;;;;;5000368;28;20239;-77
2020/12/17 09:35:17;;;;;;;5.63;4.00;;;6.90;99.90;;;;;;4992098;28;20582;-76
2020/12/17 09:37:58;;;;;;;4.10;3.70;;;6.90;99.90;;;;;;4992081;28;20199;-77
2020/12/17 09:40:25;;;;;;;5.45;4.00;;;7.20;99.90;;;;;;4991217;28;20931;-76
2020/12/17 09:43:02;;;;;;;3.88;3.30;;;8.40;99.90;;;;;;4991630;28;20227;-76
2020/12/17 09:45:32;;;;;;;3.67;3.38;;;10.30;99.90;;;;;;4991992;28;20573;-76
2020/12/17 09:47:58;;;;;;;4.03;2.95;;;11.90;99.90;;;;;;4992743;28;20249;-76
2020/12/17 09:50:24;;;;;;;4.40;3.08;;;13.30;99.90;;;;;;4998040;28;20210;-76
2020/12/17 09:52:51;;;;;;;3.60;2.92;;;14.00;99.90;;;;;;5010952;28;20218;-75
2020/12/17 09:55:17;;;;;;;3.70;3.40;;;14.60;99.90;;;;;;5007942;28;20207;-76
2020/12/17 09:57:46;;;;;;;4.30;3.15;;;15.50;99.90;;;;;;5009524;28;20214;-75
2020/12/17 10:00:13;;;;;;;3.70;3.37;;;15.80;99.90;;;;;;5009128;28;20202;-76
2020/12/17 10:02:40;;;;;;;3.30;3.00;;;15.40;99.90;;;;;;5002232;28;20485;-76
2020/12/17 10:05:07;;;;;;;3.57;3.13;;;14.50;99.90;;;;;;4989296;28;20468;-76
2020/12/17 10:07:34;;;;;;;4.70;2.90;;;14.70;99.90;;;;;;4990205;28;20524;-76
2020/12/17 10:10:00;;;;;;;3.47;3.10;;;15.10;99.90;;;;;;4990193;28;20470;-76
2020/12/17 10:12:26;;;;;;;2.80;2.60;;;14.90;99.90;;;;;;4989885;28;20838;-76
2020/12/17 10:14:53;;;;;;;3.37;3.07;;;14.10;99.90;;;;;;4989304;28;20211;-76
2020/12/17 10:17:19;;;;;;;3.10;2.80;;;13.80;99.90;;;;;;4991734;28;20485;-75
2020/12/17 10:19:46;;;;;;;3.50;3.20;;;13.80;99.90;;;;;;4991066;28;20211;-76
2020/12/17 10:22:12;;;;;;;4.20;3.80;;;13.50;99.90;;;;;;4990069;28;20690;-76
2020/12/17 10:24:38;;;;;;;3.88;3.05;;;14.00;99.90;;;;;;5001915;28;20496;-75
2020/12/17 10:27:04;;;;;;;3.55;3.25;;;14.00;99.90;;;;;;5010511;28;20206;-76
2020/12/17 10:29:31;;;;;;;3.78;3.13;;;13.10;99.90;;;;;;5011172;28;20217;-75
2020/12/17 10:31:58;;;;;;;3.15;2.85;;;12.40;99.90;;;;;;5010485;28;20206;-75
2020/12/17 10:34:24;;;;;;;3.45;3.15;;;12.20;99.90;;;;;;5010419;28;20685;-75
2020/12/17 10:36:51;;;;;;;5.50;3.45;;;12.00;99.90;;;;;;5011202;28;20210;-76
2020/12/17 10:39:17;;;;;;;4.35;2.95;;;12.80;99.90;;;;;;5009273;28;20214;-76
2020/12/17 10:41:44;;;;;;;2.83;2.60;;;13.60;99.90;;;;;;5009046;28;20645;-76
2020/12/17 10:44:11;;;;;;;3.30;3.00;;;14.20;99.90;;;;;;5008584;28;20234;-76
2020/12/17 10:46:37;;;;;;;4.18;3.38;;;13.50;99.90;;;;;;5009142;28;20202;-77
2020/12/17 10:49:05;;;;;;;3.38;2.95;;;13.10;99.90;;;;;;5009493;28;20675;-78
2020/12/17 10:51:32;;;;;;;3.60;2.60;;;14.00;99.90;;;;;;5008435;28;20210;-78
2020/12/17 10:53:58;;;;;;;3.77;3.37;;;15.30;99.90;;;;;;5009340;28;20249;-77
2020/12/17 10:56:24;;;;;;;3.80;2.93;;;16.40;99.90;;;;;;5010193;28;20780;-78
2020/12/17 10:58:51;;;;;;;3.60;2.83;;;17.50;99.90;;;;;;5009805;28;20461;-77
2020/12/17 11:01:21;;;;;;;4.80;2.80;;;18.10;99.90;;;;;;5010283;28;20511;-78
2020/12/17 11:03:48;;;;;;;3.07;2.77;;;17.60;99.90;;;;;;5006533;28;20493;-78
2020/12/17 11:06:16;;;;;;;3.57;2.80;;;16.70;99.90;;;;;;4991148;28;20529;-78
2020/12/17 11:08:42;;;;;;;3.07;2.73;;;15.30;99.90;;;;;;4994388;28;20466;-77
2020/12/17 11:11:09;;;;;;;3.60;3.30;;;13.80;99.90;;;;;;4996988;28;20466;-77
2020/12/17 11:13:35;;;;;;;3.67;3.38;;;12.30;99.90;;;;;;4998050;28;20541;-77
2020/12/17 11:16:01;;;;;;;5.88;3.25;;;11.30;99.90;;;;;;4998982;28;20207;-77
2020/12/17 11:18:27;;;;;;;3.72;3.30;;;10.60;99.90;;;;;;5019073;28;20206;-77
2020/12/17 11:20:53;;;;;;;4.20;2.80;;;10.10;99.90;;;;;;5020746;28;20202;-77
2020/12/17 11:23:21;;;;;;;4.43;3.75;;;9.80;99.90;;;;;;5019771;28;20252;-77
2020/12/17 11:25:47;;;;;;;4.95;3.40;;;9.60;99.90;;;;;;5019980;28;20206;-77
2020/12/17 11:28:13;;;;;;;3.65;3.30;;;9.40;99.90;;;;;;5020981;28;20229;-77
2020/12/17 11:30:39;;;;;;;4.00;3.20;;;9.30;99.90;;;;;;5020597;28;20216;-77
2020/12/17 11:33:06;;;;;;;4.90;3.17;;;9.30;99.90;;;;;;5017238;28;20245;-77
2020/12/17 11:35:32;;;;;;;8.15;3.83;;;9.30;99.90;;;;;;5017551;28;20211;-77
2020/12/17 11:37:59;;;;;;;5.30;4.18;;;9.30;99.90;;;;;;5016180;28;20199;-77
2020/12/17 11:40:26;;;;;;;3.75;3.10;;;9.30;99.90;;;;;;5084201;23;20234;-75
2020/12/17 11:42:54;;;;;;;4.70;3.72;;;9.40;99.90;;;;;;5008218;28;20725;-75
2020/12/17 11:45:21;;;;;;;5.40;3.55;;;9.30;99.90;;;;;;5011704;28;20206;-76
2020/12/17 11:47:47;;;;;;;4.43;3.55;;;9.30;99.90;;;;;;5018135;28;20202;-78
2020/12/17 11:50:13;;;;;;;3.78;3.42;;;9.30;99.90;;;;;;5016621;28;20206;-76
2020/12/17 11:52:40;;;;;;;3.90;3.40;;;9.30;99.90;;;;;;5016236;28;20748;-77
2020/12/17 11:55:07;;;;;;;3.60;3.30;;;9.40;99.90;;;;;;4996925;28;20571;-76
2020/12/17 11:57:35;;;;;;;5.65;3.72;;;9.40;99.90;;;;;;4993756;28;20211;-74
2020/12/17 12:00:01;;;;;;;3.85;3.45;;;9.40;99.90;;;;;;4992862;28;20645;-75
2020/12/17 12:02:28;;;;;;;6.15;4.30;;;9.40;99.90;;;;;;4991592;28;20285;-76
2020/12/17 12:04:54;;;;;;;6.30;3.83;;;9.50;99.90;;;;;;5003177;28;20737;-76
2020/12/17 12:07:23;;;;;;;3.53;3.22;;;9.60;99.90;;;;;;4995746;28;20217;-76
2020/12/17 12:09:49;;;;;;;4.10;3.63;;;9.70;99.90;;;;;;4991885;28;20233;-76
2020/12/17 12:12:15;;;;;;;6.97;4.35;;;9.70;99.90;;;;;;4990667;28;20227;-76
2020/12/17 12:14:42;;;;;;;7.13;3.53;;;9.80;99.90;;;;;;4991969;28;20203;-76
2020/12/17 12:17:09;;;;;;;4.38;3.35;;;9.70;99.90;;;;;;4991388;28;20273;-76
2020/12/17 12:19:35;;;;;;;3.25;3.05;;;9.70;99.90;;;;;;5005153;28;20598;-76
2020/12/17 12:22:01;;;;;;;6.05;3.50;;;9.60;99.90;;;;;;5010741;28;20209;-76
2020/12/17 12:24:28;;;;;;;4.30;3.90;;;9.50;99.90;;;;;;5011400;28;20590;-76
2020/12/17 12:26:54;;;;;;;4.10;3.70;;;9.50;99.90;;;;;;5011220;28;20708;-75
2020/12/17 12:29:20;;;;;;;3.40;3.08;;;9.50;99.90;;;;;;5010797;28;21048;-77
2020/12/17 12:31:50;;;;;;;4.22;3.35;;;9.50;99.90;;;;;;5010600;28;20202;-76
2020/12/17 12:34:17;;;;;;;3.63;2.90;;;9.60;99.90;;;;;;5010694;28;20787;-76
2020/12/17 12:36:47;;;;;;;3.80;3.40;;;9.70;99.90;;;;;;5011280;28;20202;-76
2020/12/17 12:39:14;;;;;;;3.08;2.88;;;9.80;99.90;;;;;;5010404;28;20682;-75
2020/12/17 12:41:40;;;;;;;5.45;3.20;;;9.90;99.90;;;;;;5010474;28;20217;-77
2020/12/17 12:44:06;;;;;;;4.63;3.33;;;10.00;99.90;;;;;;5010426;28;20222;-76
2020/12/17 12:46:32;;;;;;;4.57;3.40;;;10.00;99.90;;;;;;5011054;28;20203;-76
2020/12/17 12:48:59;;;;;;;3.88;2.83;;;10.10;99.90;;;;;;5010919;28;20210;-75
2020/12/17 12:51:26;;;;;;;5.78;3.72;;;10.10;99.90;;;;;;5011126;28;20210;-75
2020/12/17 12:53:52;;;;;;;3.63;3.20;;;10.10;99.90;;;;;;5010302;28;20333;-75
2020/12/17 12:56:23;;;;;;;3.30;2.88;;;10.10;99.90;;;;;;5010293;28;20210;-76